Time;durP1;ratioP1;P1;durP2;ratioP2;P2;SDS_P1;SDS_P2;PMS_P1;PMS_P2;Temp;Humidity;BMP_temperature;BMP_pressure;BME280_temperature;BME280_humidity;BME280_pressure;Samples;Min_cycle;Max_cycle;Signal;HPM_P1;HPM_P2
2022/12/04 00:00:02;;;;;;;73.73;40.13;;;;;;;-2.73;95.13;100681.87;1713025;83;21046;-73
2022/12/04 00:02:30;;;;;;;69.27;37.00;;;;;;;-2.73;95.13;100681.87;1718473;83;22055;-75
2022/12/04 00:04:57;;;;;;;72.30;41.75;;;;;;;-2.70;95.03;100688.33;1712815;82;21211;-73
2022/12/04 00:07:24;;;;;;;76.30;40.03;;;;;;;-2.68;95.09;100684.12;1705887;83;21034;-73
2022/12/04 00:09:50;;;;;;;75.28;40.63;;;;;;;-2.64;95.09;100675.66;1710255;83;21050;-74
2022/12/04 00:12:17;;;;;;;70.05;39.80;;;;;;;-2.60;95.11;100677.90;1698092;83;21033;-73
2022/12/04 00:14:43;;;;;;;77.80;40.45;;;;;;;-2.59;95.10;100677.91;1708150;83;20939;-72
2022/12/04 00:17:10;;;;;;;67.70;38.28;;;;;;;-2.60;95.18;100682.59;1716536;83;21542;-73
2022/12/04 00:19:36;;;;;;;67.58;37.30;;;;;;;-2.57;95.20;100692.88;1719081;83;21069;-73
2022/12/04 00:22:03;;;;;;;73.20;39.27;;;;;;;-2.57;95.23;100687.77;1716523;83;20967;-72
2022/12/04 00:24:30;;;;;;;72.65;38.60;;;;;;;-2.53;95.14;100688.69;1708311;83;21025;-72
2022/12/04 00:26:56;;;;;;;74.33;40.97;;;;;;;-2.60;95.05;100669.80;1718546;82;22060;-73
2022/12/04 00:29:23;;;;;;;72.35;38.75;;;;;;;-2.60;95.05;100669.80;1706337;83;21486;-72
2022/12/04 00:31:49;;;;;;;71.40;38.35;;;;;;;-2.54;95.23;100685.27;1690147;83;20993;-75
2022/12/04 00:34:16;;;;;;;70.42;39.03;;;;;;;-2.53;95.37;100688.69;1701073;83;21100;-72
2022/12/04 00:36:42;;;;;;;72.97;39.03;;;;;;;-2.53;95.45;100681.88;1723852;82;20986;-72
2022/12/04 00:39:09;;;;;;;73.12;40.03;;;;;;;-2.53;95.44;100676.76;1686837;84;21084;-73
2022/12/04 00:41:37;;;;;;;68.30;37.70;;;;;;;-2.53;95.56;100671.64;1665699;84;21108;-72
2022/12/04 00:44:04;;;;;;;63.85;35.95;;;;;;;-2.52;95.68;100668.28;1675753;84;21021;-72
2022/12/04 00:46:30;;;;;;;72.10;38.77;;;;;;;-2.51;95.60;100666.16;1680265;84;21092;-75
2022/12/04 00:49:00;;;;;;;75.45;39.65;;;;;;;-2.49;95.56;100682.41;1686327;85;22205;-72
2022/12/04 00:51:25;;;;;;;69.55;37.95;;;;;;;-2.47;95.60;100679.44;1691298;84;21140;-72
2022/12/04 00:53:52;;;;;;;72.75;38.13;;;;;;;-2.42;95.61;100671.02;1668805;85;21002;-72
2022/12/04 00:56:23;;;;;;;63.67;36.10;;;;;;;-2.37;95.58;100675.39;1649196;86;21079;-72
2022/12/04 00:58:57;;;;;;;65.50;36.98;;;;;;;-2.34;95.62;100670.76;1679774;84;21033;-72
2022/12/04 01:01:25;;;;;;;65.78;37.28;;;;;;;-2.32;95.56;100667.83;1681031;84;20947;-72
2022/12/04 01:03:54;;;;;;;66.25;37.53;;;;;;;-2.30;95.57;100672.53;1699628;83;20934;-72
2022/12/04 01:06:28;;;;;;;63.63;36.20;;;;;;;-2.27;95.58;100667.47;1671239;84;21383;-72
2022/12/04 01:08:57;;;;;;;67.42;38.05;;;;;;;-2.24;95.57;100671.40;1694547;84;20979;-72
2022/12/04 01:11:26;;;;;;;67.40;37.83;;;;;;;-2.22;95.59;100677.39;1673367;85;21485;-72
2022/12/04 01:13:53;;;;;;;60.80;35.63;;;;;;;-2.21;95.54;100679.13;1670283;86;21037;-72
2022/12/04 01:16:25;;;;;;;64.00;37.03;;;;;;;-2.19;95.59;100671.05;1660021;86;21081;-72
2022/12/04 01:18:52;;;;;;;59.88;36.40;;;;;;;-2.15;95.60;100672.85;1666820;85;21522;-72
2022/12/04 01:21:19;;;;;;;59.23;33.00;;;;;;;-2.11;95.64;100665.66;1655192;85;20986;-72
2022/12/04 01:23:46;;;;;;;60.83;34.15;;;;;;;-2.06;95.63;100664.06;1660325;84;21096;-72
2022/12/04 01:26:13;;;;;;;70.75;35.08;;;;;;;-2.04;95.63;100657.70;1692087;83;21017;-72
2022/12/04 01:28:40;;;;;;;61.35;36.50;;;;;;;-2.03;95.68;100659.00;1701428;83;20972;-72
2022/12/04 01:31:12;;;;;;;64.83;39.73;;;;;;;-2.00;95.78;100653.08;1649523;86;21001;-72
2022/12/04 01:33:40;;;;;;;67.72;36.68;;;;;;;-1.99;95.73;100659.05;1659647;85;20997;-75
2022/12/04 01:36:11;;;;;;;60.88;36.13;;;;;;;-1.97;95.76;100659.95;1648443;85;21765;-72
2022/12/04 01:38:39;;;;;;;66.72;37.58;;;;;;;-1.95;95.74;100660.85;1672538;86;20997;-72
2022/12/04 01:41:07;;;;;;;67.42;37.95;;;;;;;-1.93;95.75;100664.28;1664617;84;21343;-72
2022/12/04 01:43:37;;;;;;;72.10;39.13;;;;;;;-1.91;95.76;100669.02;1667462;84;20979;-72
2022/12/04 01:46:05;;;;;;;73.83;39.42;;;;;;;-1.91;95.64;100665.18;1697056;84;21437;-72
2022/12/04 01:48:51;;;;;;;70.15;37.95;;;;;;;-1.93;95.73;100669.00;1696438;84;21164;-73
2022/12/04 01:51:31;;;;;;;69.42;36.68;;;;;;;-1.94;95.72;100672.80;1694656;84;21497;-72
2022/12/04 01:54:03;;;;;;;73.40;38.40;;;;;;;-1.93;95.78;100670.29;1687346;84;21594;-72
2022/12/04 01:56:44;;;;;;;69.42;36.03;;;;;;;-1.94;95.82;100671.52;1697387;84;21557;-72
2022/12/04 01:59:14;;;;;;;70.90;37.10;;;;;;;-1.94;95.88;100667.69;1684795;84;21392;-73
2022/12/04 02:01:49;;;;;;;68.80;38.20;;;;;;;-1.89;95.90;100663.52;1680369;83;21620;-73
2022/12/04 02:04:16;;;;;;;69.07;38.45;;;;;;;-1.86;95.95;100663.57;1687212;84;21567;-72
2022/12/04 02:06:42;;;;;;;79.92;40.17;;;;;;;-1.84;96.00;100661.91;1672297;84;21018;-73
2022/12/04 02:09:09;;;;;;;61.23;34.60;;;;;;;-1.84;96.06;100661.91;1692505;83;21012;-72
2022/12/04 02:11:58;;;;;;;64.90;35.20;;;;;;;-1.84;96.04;100662.77;1667985;85;21068;-73
2022/12/04 02:14:36;;;;;;;67.17;35.98;;;;;;;-1.83;96.00;100663.63;1703725;83;21072;-72
2022/12/04 02:17:23;;;;;;;69.55;36.88;;;;;;;-1.81;96.17;100657.70;1670478;84;21004;-72
2022/12/04 02:20:16;;;;;;;76.05;38.30;;;;;;;-1.81;96.02;100649.16;1644535;86;22092;-73
2022/12/04 02:23:13;;;;;;;90.60;44.08;;;;;;;-1.78;96.06;100654.34;1662076;85;21531;-73
2022/12/04 02:26:22;;;;;;;81.02;42.58;;;;;;;-1.73;95.97;100650.16;1689592;84;21016;-73
2022/12/04 02:28:56;;;;;;;93.60;47.73;;;;;;;-1.69;95.90;100641.69;1651404;84;20961;-73
2022/12/04 02:31:37;;;;;;;78.87;41.75;;;;;;;-1.69;95.75;100645.52;1689066;84;20980;-73
2022/12/04 02:34:15;;;;;;;81.95;40.92;;;;;;;-1.73;95.69;100645.05;1697590;84;21073;-73
2022/12/04 02:36:50;;;;;;;96.30;45.60;;;;;;;-1.73;95.76;100642.48;1687306;83;21040;-73
2022/12/04 02:39:45;;;;;;;86.63;44.53;;;;;;;-1.74;95.74;100640.73;1648911;85;21064;-73
2022/12/04 02:42:19;;;;;;;78.02;39.65;;;;;;;-1.76;95.67;100637.31;1626618;86;21027;-73
2022/12/04 02:44:57;;;;;;;84.40;43.92;;;;;;;-1.80;95.79;100646.61;1655420;85;20979;-73
2022/12/04 02:47:25;;;;;;;77.58;39.55;;;;;;;-1.85;95.89;100643.52;1662590;85;21047;-73
2022/12/04 02:49:59;;;;;;;86.85;43.10;;;;;;;-1.86;95.91;100643.09;1656039;86;21040;-73
2022/12/04 02:52:31;;;;;;;68.72;37.35;;;;;;;-1.86;95.83;100643.09;1658824;85;21494;-72
2022/12/04 02:55:05;;;;;;;83.03;40.60;;;;;;;-1.88;95.99;100647.31;1644267;85;21060;-72
2022/12/04 02:57:36;;;;;;;73.65;39.50;;;;;;;-1.91;96.10;100649.82;1639799;85;21021;-72
2022/12/04 03:00:07;;;;;;;78.33;38.75;;;;;;;-1.91;96.25;100654.94;1644522;85;21592;-73
2022/12/04 03:02:46;;;;;;;75.32;39.78;;;;;;;-1.92;96.37;100648.11;1640099;85;21099;-73
2022/12/04 03:05:17;;;;;;;70.30;36.95;;;;;;;-1.93;96.40;100646.36;1639269;85;21481;-73
2022/12/04 03:07:53;;;;;;;62.83;35.10;;;;;;;-1.91;96.49;100643.42;1641411;85;21158;-73
2022/12/04 03:10:31;;;;;;;67.35;35.13;;;;;;;-1.88;96.56;100642.19;1640992;85;21045;-73
2022/12/04 03:13:21;;;;;;;67.15;35.95;;;;;;;-1.86;96.51;100641.81;1656374;85;21103;-73
2022/12/04 03:15:53;;;;;;;68.45;34.65;;;;;;;-1.84;96.48;100641.43;1647336;82;21037;-72
2022/12/04 03:18:28;;;;;;;72.53;36.25;;;;;;;-1.80;96.42;100636.38;1715417;82;21061;-73
2022/12/04 03:21:09;;;;;;;77.15;40.40;;;;;;;-1.80;96.47;100643.20;1719902;82;21531;-72
2022/12/04 03:23:47;;;;;;;67.45;36.73;;;;;;;-1.76;96.49;100649.22;1720351;82;21036;-72
2022/12/04 03:26:16;;;;;;;;;;;;;;;-1.75;96.41;100639.02;1719546;82;21138;-72
2022/12/04 03:28:56;;;;;;;65.25;34.38;;;;;;;-1.76;96.41;100641.16;1702692;82;20179;-72
2022/12/04 03:31:34;;;;;;;67.37;36.33;;;;;;;-1.78;96.42;100631.29;1704431;83;21076;-72
2022/12/04 03:34:04;;;;;;;76.75;41.50;;;;;;;-1.78;96.45;100632.58;1716794;82;20959;-72
2022/12/04 03:36:49;;;;;;;78.20;39.78;;;;;;;-1.78;96.38;100631.29;1705826;83;20976;-72
2022/12/04 03:39:27;;;;;;;78.37;40.05;;;;;;;-1.75;96.36;100633.91;1699917;82;21016;-72
2022/12/04 03:42:13;;;;;;;75.50;37.28;;;;;;;-1.73;96.36;100629.68;1713569;83;21093;-72
2022/12/04 03:44:54;;;;;;;73.90;40.45;;;;;;;-1.72;96.32;100627.55;1718146;82;21651;-73
2022/12/04 03:47:32;;;;;;;77.58;39.83;;;;;;;-1.74;96.52;100627.94;1729352;82;21096;-73
2022/12/04 03:50:09;;;;;;;85.03;41.85;;;;;;;-1.74;96.44;100627.94;1713171;81;21097;-72
2022/12/04 03:52:50;;;;;;;73.40;35.58;;;;;;;-1.72;96.34;100630.11;1730097;82;20985;-72
2022/12/04 03:55:26;;;;;;;59.10;33.08;;;;;;;-1.74;96.61;100631.77;1710359;82;21108;-72
2022/12/04 03:57:58;;;;;;;80.28;39.23;;;;;;;-1.72;96.61;100627.97;1689137;83;21548;-73
2022/12/04 04:00:25;;;;;;;73.85;37.28;;;;;;;-1.73;96.58;100617.30;1700151;83;21098;-73
2022/12/04 04:03:02;;;;;;;82.78;41.02;;;;;;;-1.74;96.60;100625.38;1715980;83;21077;-73
2022/12/04 04:05:29;;;;;;;;;;;;;;;-1.74;96.64;100625.38;1695071;83;21072;-73
2022/12/04 04:08:24;;;;;;;79.92;37.73;;;;;;;-1.70;96.61;100622.05;1716244;83;20124;-72
2022/12/04 04:10:29;;;;;;;77.72;39.03;;;;;;;-1.72;96.60;100621.15;1720151;83;21135;-73
2022/12/04 04:24:15;;;;;;;69.72;37.53;;;;;;;-1.59;96.77;100616.69;1680964;85;20986;-72
2022/12/04 04:26:45;;;;;;;65.50;34.27;;;;;;;-1.54;96.71;100608.20;1687277;84;21517;-73
2022/12/04 04:29:12;;;;;;;60.48;32.90;;;;;;;-1.54;96.75;100604.36;1679105;84;20953;-72
2022/12/04 04:32:10;;;;;;;63.38;33.75;;;;;;;-1.51;96.92;100609.52;1684921;85;21000;-73
2022/12/04 04:34:57;;;;;;;54.83;30.00;;;;;;;-1.48;97.02;100610.88;1684120;84;20989;-72
2022/12/04 04:37:47;;;;;;;55.05;32.03;;;;;;;-1.46;97.12;100616.87;1689309;83;21061;-72
2022/12/04 04:40:34;;;;;;;59.45;33.40;;;;;;;-1.44;97.13;100619.05;1638463;86;21079;-72
2022/12/04 04:43:14;;;;;;;58.40;34.58;;;;;;;-1.45;97.23;100617.33;1640576;86;21186;-72
2022/12/04 04:45:52;;;;;;;64.58;32.83;;;;;;;-1.44;97.25;100613.92;1658205;85;21116;-72
2022/12/04 04:48:24;;;;;;;69.85;34.85;;;;;;;-1.44;97.28;100621.61;1686595;84;21615;-72
2022/12/04 04:50:52;;;;;;;80.92;40.58;;;;;;;-1.47;97.47;100622.42;1653106;85;21076;-72
2022/12/04 04:53:25;;;;;;;69.67;37.63;;;;;;;-1.49;97.56;100623.23;1672853;84;20970;-72
2022/12/04 04:55:53;;;;;;;65.10;37.48;;;;;;;-1.44;97.36;100624.17;1668271;84;21597;-73
2022/12/04 04:58:21;;;;;;;72.62;38.33;;;;;;;-1.41;97.39;100626.77;1668264;85;21858;-73
2022/12/04 05:01:01;;;;;;;72.75;36.05;;;;;;;-1.42;97.42;100621.22;1667588;85;21058;-73
2022/12/04 05:03:29;;;;;;;68.95;37.13;;;;;;;-1.39;97.51;100623.83;1715001;83;21491;-73
2022/12/04 05:05:56;;;;;;;69.12;35.25;;;;;;;-1.37;97.57;100611.91;1709917;82;20978;-73
2022/12/04 05:08:23;;;;;;;68.52;38.23;;;;;;;-1.33;97.73;100611.11;1705575;82;21080;-73
2022/12/04 05:10:49;;;;;;;65.30;34.93;;;;;;;-1.23;97.48;100615.94;1706115;83;20974;-72
2022/12/04 05:13:17;;;;;;;65.40;35.05;;;;;;;-1.21;97.55;100617.69;1712312;83;21572;-73
2022/12/04 05:15:43;;;;;;;64.87;38.13;;;;;;;-1.22;97.59;100614.69;1712285;82;21583;-72
2022/12/04 05:18:10;;;;;;;63.90;35.20;;;;;;;-1.21;97.72;100620.24;1707704;83;21520;-72
2022/12/04 05:20:40;;;;;;;60.73;34.30;;;;;;;-1.16;97.84;100623.74;1698060;83;21619;-72
2022/12/04 05:23:07;;;;;;;60.50;35.05;;;;;;;-1.15;97.81;100617.80;1704804;82;20989;-72
2022/12/04 05:25:33;;;;;;;65.95;36.55;;;;;;;-1.10;97.81;100616.99;1715527;82;21028;-72
2022/12/04 05:28:00;;;;;;;60.10;33.37;;;;;;;-1.07;97.81;100626.00;1715614;82;21048;-72
2022/12/04 05:30:26;;;;;;;56.17;33.60;;;;;;;-1.09;97.96;100619.59;1717037;83;21148;-73
2022/12/04 05:32:53;;;;;;;52.35;31.35;;;;;;;-1.13;98.08;100618.66;1721517;82;21335;-76
2022/12/04 05:35:20;;;;;;;49.18;29.82;;;;;;;-1.11;98.23;100622.97;1705795;82;20970;-72
2022/12/04 05:37:46;;;;;;;65.28;33.98;;;;;;;-1.11;98.32;100628.09;1723775;82;20982;-72
2022/12/04 05:40:13;;;;;;;62.70;35.98;;;;;;;-1.09;98.21;100623.83;1717958;82;21077;-72
2022/12/04 05:42:40;;;;;;;60.70;36.73;;;;;;;-1.06;98.29;100621.34;1720488;83;21053;-72
2022/12/04 05:45:07;;;;;;;61.77;33.40;;;;;;;-1.02;98.18;100617.96;1718784;82;21135;-72
2022/12/04 05:47:41;;;;;;;;;;;;;;;-0.99;98.14;100620.56;1714522;83;21029;-73
2022/12/04 05:50:11;;;;;;;54.65;33.60;;;;;;;-0.97;98.19;100624.02;1711497;83;20273;-72
2022/12/04 05:52:38;;;;;;;64.22;36.48;;;;;;;-0.96;98.25;100615.48;1715555;82;21006;-72
2022/12/04 05:55:06;;;;;;;53.10;33.07;;;;;;;-0.99;98.49;100615.44;1700443;83;20954;-72
2022/12/04 05:57:32;;;;;;;;;;;;;;;-0.92;98.52;100607.01;1695790;83;20991;-72
2022/12/04 05:59:58;;;;;;;56.48;33.75;;;;;;;-0.89;98.48;100604.48;1702533;83;20459;-73
2022/12/04 06:02:25;;;;;;;50.28;30.02;;;;;;;-0.89;98.55;100605.77;1714785;83;21050;-73
2022/12/04 06:04:52;;;;;;;53.17;29.67;;;;;;;-0.87;98.88;100609.61;1707913;83;21032;-73
2022/12/04 06:07:19;;;;;;;54.50;32.08;;;;;;;-0.87;98.92;100610.47;1711932;82;20971;-73
2022/12/04 06:09:46;;;;;;;54.30;32.13;;;;;;;-0.87;98.85;100614.31;1718716;82;21567;-73
2022/12/04 06:12:13;;;;;;;53.35;32.25;;;;;;;-0.86;98.92;100605.80;1705863;83;21018;-73
2022/12/04 06:14:39;;;;;;;;;;;;;;;-0.86;98.94;100610.93;1713601;83;20979;-73
2022/12/04 06:17:06;;;;;;;52.80;31.17;;;;;;;-0.85;98.94;100616.48;1709064;83;20422;-73
2022/12/04 06:19:33;;;;;;;51.53;31.17;;;;;;;-0.84;99.07;100609.25;1692033;82;20985;-73
2022/12/04 06:21:59;;;;;;;45.43;27.10;;;;;;;-0.84;99.04;100615.67;1671859;84;21216;-73
2022/12/04 06:24:26;;;;;;;55.23;31.97;;;;;;;-0.82;99.05;100618.23;1668417;86;21014;-73
2022/12/04 06:26:58;;;;;;;52.53;33.33;;;;;;;-0.80;98.95;100607.16;1663767;84;21002;-73
2022/12/04 06:29:25;;;;;;;46.80;30.27;;;;;;;-0.77;99.02;100614.89;1652470;85;21073;-73
2022/12/04 06:31:51;;;;;;;48.30;29.63;;;;;;;-0.77;99.00;100620.02;1675389;84;21017;-76
2022/12/04 06:34:18;;;;;;;51.90;31.65;;;;;;;-0.75;99.11;100615.78;1664450;84;21046;-73
2022/12/04 06:36:44;;;;;;;48.17;30.55;;;;;;;-0.72;98.98;100613.25;1674981;84;20965;-73
2022/12/04 06:39:11;;;;;;;49.45;31.20;;;;;;;-0.70;98.99;100624.40;1669734;86;21065;-73
2022/12/04 06:41:37;;;;;;;51.18;32.40;;;;;;;-0.66;98.99;100616.74;1668881;85;21497;-73
2022/12/04 06:44:05;;;;;;;47.58;30.40;;;;;;;-0.66;99.06;100624.44;1671077;85;21018;-73
2022/12/04 06:46:34;;;;;;;44.70;30.35;;;;;;;-0.62;99.02;100621.05;1674900;85;20993;-74
2022/12/04 06:49:01;;;;;;;53.42;31.70;;;;;;;-0.61;99.00;100630.49;1674595;85;20950;-73
2022/12/04 06:51:31;;;;;;;47.50;31.02;;;;;;;-0.60;99.08;100621.94;1669492;85;21084;-73
2022/12/04 06:53:59;;;;;;;48.63;29.98;;;;;;;-0.60;99.15;100625.79;1704172;83;21080;-73
2022/12/04 06:56:30;;;;;;;49.23;30.48;;;;;;;-0.60;99.28;100631.77;1706160;83;21469;-73
2022/12/04 06:58:59;;;;;;;40.03;26.52;;;;;;;-0.57;99.31;100632.23;1717189;83;21034;-73
2022/12/04 07:01:29;;;;;;;44.40;26.00;;;;;;;-0.58;99.46;100638.22;1704005;82;20938;-73
2022/12/04 07:03:58;;;;;;;50.45;29.63;;;;;;;-0.60;99.83;100634.77;1717261;82;21041;-73
2022/12/04 07:06:28;;;;;;;51.08;28.73;;;;;;;-0.56;99.58;100636.52;1687345;85;20982;-74
2022/12/04 07:09:02;;;;;;;46.35;27.45;;;;;;;-0.53;99.45;100630.17;1662487;85;21496;-74
2022/12/04 07:11:29;;;;;;;44.75;26.93;;;;;;;-0.48;99.45;100632.34;1651434;86;21020;-73
2022/12/04 07:13:56;;;;;;;;;;;;;;;-0.46;99.51;100625.53;1664100;85;21155;-73
2022/12/04 07:16:25;;;;;;;48.15;29.80;;;;;;;-0.44;99.50;100628.98;1674463;85;20436;-73
2022/12/04 07:18:52;;;;;;;43.33;28.57;;;;;;;-0.40;99.57;100620.47;1661056;85;21056;-73
2022/12/04 07:21:28;;;;;;;41.83;26.17;;;;;;;-0.40;99.66;100619.19;1693591;83;21016;-73
2022/12/04 07:24:00;;;;;;;45.63;29.65;;;;;;;-0.38;99.78;100616.22;1682359;83;20951;-73
2022/12/04 07:26:29;;;;;;;46.25;27.95;;;;;;;-0.36;99.75;100619.67;1691492;85;21550;-73
2022/12/04 07:28:57;;;;;;;39.40;26.80;;;;;;;-0.35;99.87;100617.54;1689844;83;21021;-74
2022/12/04 07:31:26;;;;;;;43.33;27.58;;;;;;;-0.35;100.00;100617.97;1645597;86;21523;-74
2022/12/04 07:33:53;;;;;;;52.00;30.52;;;;;;;-0.30;100.00;100613.75;1661009;86;21032;-73
2022/12/04 07:36:22;;;;;;;50.05;29.37;;;;;;;-0.28;100.00;100618.06;1653063;86;20946;-73
2022/12/04 07:38:49;;;;;;;44.45;28.05;;;;;;;-0.25;100.00;100615.53;1630629;85;21095;-73
2022/12/04 07:41:17;;;;;;;45.05;29.32;;;;;;;-0.24;100.00;100624.94;1649095;86;21020;-73
2022/12/04 07:43:44;;;;;;;37.78;24.90;;;;;;;-0.23;100.00;100631.78;1660813;86;21009;-74
2022/12/04 07:46:18;;;;;;;45.05;27.73;;;;;;;-0.20;100.00;100622.41;1684272;82;21039;-74
2022/12/04 07:48:45;;;;;;;42.20;26.48;;;;;;;-0.15;100.00;100615.62;1695558;82;21540;-73
2022/12/04 07:51:21;;;;;;;45.90;29.35;;;;;;;-0.15;100.00;100616.90;1688935;83;20993;-74
2022/12/04 07:53:49;;;;;;;42.53;26.30;;;;;;;-0.13;100.00;100619.07;1690989;83;21052;-73
2022/12/04 07:56:17;;;;;;;44.75;27.55;;;;;;;-0.12;100.00;100634.90;1689909;85;20966;-73
2022/12/04 07:58:44;;;;;;;;;;;;;;;-0.11;100.00;100619.92;1691343;83;21606;-73
2022/12/04 08:01:21;;;;;;;39.53;25.08;;;;;;;-0.06;100.00;100625.97;1656360;85;20534;-74
2022/12/04 08:03:51;;;;;;;43.73;28.27;;;;;;;-0.08;100.00;100625.12;1661359;86;21002;-73
2022/12/04 08:06:21;;;;;;;47.30;30.00;;;;;;;-0.03;100.00;100626.00;1660784;86;21001;-73
2022/12/04 08:08:49;;;;;;;48.28;28.62;;;;;;;-0.02;100.00;100628.59;1661414;85;21024;-73
2022/12/04 08:11:22;;;;;;;48.98;30.45;;;;;;;-0.02;100.00;100623.47;1654735;85;21519;-73
2022/12/04 08:13:55;;;;;;;44.10;29.57;;;;;;;-0.02;100.00;100630.31;1654229;86;21583;-73
2022/12/04 08:16:25;;;;;;;53.90;30.90;;;;;;;-0.01;100.00;100624.32;1669604;86;20955;-73
2022/12/04 08:18:52;;;;;;;49.15;31.20;;;;;;;0.03;100.00;100623.52;1689202;84;21516;-72
2022/12/04 08:21:22;;;;;;;52.23;31.65;;;;;;;0.02;100.00;100626.91;1691030;83;21096;-73
2022/12/04 08:23:52;;;;;;;50.00;31.48;;;;;;;0.04;100.00;100626.52;1691161;83;21048;-73
2022/12/04 08:26:21;;;;;;;57.08;33.80;;;;;;;0.05;100.00;100623.09;1690238;84;21555;-74
2022/12/04 08:28:48;;;;;;;46.77;30.25;;;;;;;0.06;100.00;100628.69;1690078;83;21068;-74
2022/12/04 08:31:19;;;;;;;51.05;31.23;;;;;;;0.06;100.00;100625.27;1689183;85;20989;-73
2022/12/04 08:33:47;;;;;;;45.33;29.02;;;;;;;0.04;100.00;100624.38;1688328;82;21029;-74
2022/12/04 08:36:18;;;;;;;56.63;32.65;;;;;;;-0.02;100.00;100621.33;1677350;84;21527;-74
2022/12/04 08:38:45;;;;;;;61.02;32.75;;;;;;;0.01;100.00;100625.20;1689097;84;20978;-73
2022/12/04 08:41:14;;;;;;;;;;;;;;;0.06;100.00;100624.83;1689281;83;20988;-74
2022/12/04 08:43:41;;;;;;;59.15;34.10;;;;;;;0.03;100.00;100618.39;1696271;82;20452;-74
2022/12/04 08:46:12;;;;;;;60.12;34.55;;;;;;;0.02;100.00;100619.21;1690391;83;21068;-74
2022/12/04 08:48:39;;;;;;;51.18;31.35;;;;;;;0.02;100.00;100626.91;1689790;84;21641;-73
2022/12/04 08:51:09;;;;;;;55.92;34.00;;;;;;;-0.02;100.00;100629.88;1661709;85;21654;-74
2022/12/04 08:53:35;;;;;;;57.20;32.15;;;;;;;-0.03;100.00;100633.70;1658935;86;20998;-73
2022/12/04 08:56:03;;;;;;;62.45;34.95;;;;;;;-0.01;100.00;100629.45;1657994;86;21000;-74
2022/12/04 08:58:30;;;;;;;52.60;27.30;;;;;;;-0.04;100.00;100631.99;1660143;86;21610;-73
2022/12/04 09:01:07;;;;;;;54.77;30.65;;;;;;;-0.03;100.00;100626.00;1658996;86;21543;-74
2022/12/04 09:03:34;;;;;;;57.08;35.20;;;;;;;-0.04;100.00;100627.72;1655356;85;21524;-74
2022/12/04 09:06:03;;;;;;;54.13;31.45;;;;;;;-0.03;100.00;100633.70;1662617;85;21058;-74
2022/12/04 09:08:32;;;;;;;58.38;34.23;;;;;;;0.00;100.00;100628.62;1690359;85;21623;-73
2022/12/04 09:11:07;;;;;;;59.48;33.65;;;;;;;0.04;100.00;100625.66;1686387;83;21028;-73
2022/12/04 09:13:35;;;;;;;60.28;34.05;;;;;;;0.05;100.00;100629.51;1690718;83;21567;-73
2022/12/04 09:16:05;;;;;;;55.40;32.95;;;;;;;0.03;100.00;100629.94;1689985;83;21009;-73
2022/12/04 09:18:34;;;;;;;63.50;33.65;;;;;;;0.01;100.00;100630.34;1689590;83;20957;-75
2022/12/04 09:21:05;;;;;;;67.60;33.35;;;;;;;0.03;100.00;100618.39;1692609;83;20996;-74
2022/12/04 09:23:34;;;;;;;64.35;33.53;;;;;;;-0.02;100.00;100620.90;1687556;83;21043;-74
2022/12/04 09:26:02;;;;;;;65.60;33.70;;;;;;;-0.04;100.00;100627.72;1686601;83;22227;-73
2022/12/04 09:28:28;;;;;;;58.75;32.48;;;;;;;-0.03;100.00;100626.89;1688679;83;21096;-74
2022/12/04 09:31:02;;;;;;;65.08;35.78;;;;;;;-0.01;100.00;100616.62;1681129;83;20989;-73
2022/12/04 09:33:29;;;;;;;55.58;32.80;;;;;;;0.01;100.00;100617.50;1683685;83;21578;-74
2022/12/04 09:35:59;;;;;;;53.45;32.05;;;;;;;-0.02;100.00;100615.77;1687329;83;20978;-74
2022/12/04 09:38:28;;;;;;;62.65;33.53;;;;;;;-0.02;100.00;100613.63;1680519;83;21088;-74
2022/12/04 09:41:48;;;;;;;67.97;34.40;;;;;;;0.00;100.00;100604.23;1647421;86;21437;-74
2022/12/04 09:44:41;;;;;;;55.60;31.70;;;;;;;0.03;100.00;100604.27;1666943;86;21128;-74
2022/12/04 09:47:21;;;;;;;65.85;35.75;;;;;;;0.03;100.00;100602.98;1665856;85;21133;-74
2022/12/04 09:49:59;;;;;;;51.45;30.17;;;;;;;0.12;100.00;100597.92;1667151;84;21077;-75
2022/12/04 09:52:54;;;;;;;63.05;33.02;;;;;;;0.11;100.00;100598.78;1666095;84;21470;-74
2022/12/04 09:55:52;;;;;;;49.15;30.12;;;;;;;0.15;100.00;100597.95;1709688;82;20986;-73
2022/12/04 09:58:24;;;;;;;54.65;28.85;;;;;;;0.16;100.00;100591.95;1713071;82;21073;-74
2022/12/04 10:00:53;;;;;;;48.52;28.00;;;;;;;0.16;100.00;100590.67;1707721;82;21005;-74
2022/12/04 10:03:24;;;;;;;112.30;54.42;;;;;;;0.15;100.00;100594.52;1720020;83;21507;-74
2022/12/04 10:06:08;;;;;;;58.17;30.72;;;;;;;0.13;100.00;100595.78;1706547;83;21010;-74
2022/12/04 10:08:38;;;;;;;46.88;29.12;;;;;;;0.09;100.00;100604.31;1692807;83;21041;-74
2022/12/04 10:11:18;;;;;;;47.70;27.42;;;;;;;0.10;100.00;100597.04;1725377;82;21010;-74
2022/12/04 10:14:05;;;;;;;49.93;28.45;;;;;;;0.04;100.00;100596.98;1710449;82;20993;-74
2022/12/04 10:16:56;;;;;;;45.17;26.05;;;;;;;0.02;100.00;100592.68;1707223;82;21036;-74
2022/12/04 10:19:52;;;;;;;46.55;26.27;;;;;;;-0.02;100.00;100584.95;1710418;82;21076;-74
2022/12/04 10:22:24;;;;;;;49.38;27.60;;;;;;;-0.04;100.00;100585.78;1706319;82;21017;-74
2022/12/04 10:24:55;;;;;;;55.80;30.23;;;;;;;-0.06;100.00;100581.05;1711746;83;21497;-74
2022/12/04 10:27:31;;;;;;;48.90;27.60;;;;;;;-0.03;100.00;100587.48;1709187;82;21145;-74
2022/12/04 10:30:15;;;;;;;46.73;25.15;;;;;;;-0.07;100.00;100593.45;1708482;83;20986;-74
2022/12/04 10:32:45;;;;;;;49.77;28.42;;;;;;;-0.05;100.00;100586.64;1707224;82;21044;-74
2022/12/04 10:35:22;;;;;;;47.20;25.95;;;;;;;-0.06;100.00;100590.03;1724037;83;21069;-74
2022/12/04 10:37:53;;;;;;;47.38;26.42;;;;;;;-0.03;100.00;100591.34;1723918;83;21544;-75
2022/12/04 10:40:34;;;;;;;50.65;26.12;;;;;;;0.01;100.00;100594.39;1715424;83;20956;-75
2022/12/04 10:43:22;;;;;;;42.93;22.98;;;;;;;0.01;100.00;100587.97;1708296;82;21037;-75
2022/12/04 10:45:48;;;;;;;48.23;25.35;;;;;;;-0.01;100.00;100590.94;1624193;87;21675;-75
2022/12/04 10:48:27;;;;;;;50.30;26.23;;;;;;;-0.07;100.00;100585.75;1622725;88;21203;-75
2022/12/04 10:50:54;;;;;;;49.50;27.55;;;;;;;-0.09;100.00;100586.16;1610771;88;21066;-75
2022/12/04 10:53:25;;;;;;;40.03;21.80;;;;;;;-0.06;100.00;100590.03;1620500;88;21121;-75
2022/12/04 10:55:52;;;;;;;39.75;23.80;;;;;;;-0.02;100.00;100586.66;1622738;86;21124;-75
2022/12/04 10:58:19;;;;;;;42.50;24.15;;;;;;;0.00;100.00;100579.84;1621975;88;21160;-75
2022/12/04 11:01:04;;;;;;;49.27;25.52;;;;;;;0.02;100.00;100573.00;1622361;88;21536;-75
2022/12/04 11:03:31;;;;;;;38.40;22.35;;;;;;;0.05;100.00;100574.30;1626495;88;21508;-75
2022/12/04 11:06:00;;;;;;;;;;;;;;;0.07;100.00;100567.91;1621340;88;21516;-75
2022/12/04 11:08:38;;;;;;;42.38;24.18;;;;;;;0.06;100.00;100555.50;1619213;88;20150;-74
2022/12/04 11:11:10;;;;;;;37.13;22.10;;;;;;;0.07;100.00;100555.92;1621879;88;21363;-75
2022/12/04 11:13:37;;;;;;;45.90;23.77;;;;;;;0.10;100.00;100555.95;1618174;88;21133;-74
2022/12/04 11:16:05;;;;;;;34.35;22.60;;;;;;;0.14;100.00;100561.57;1617764;88;21042;-74
2022/12/04 11:18:49;;;;;;;39.08;23.67;;;;;;;0.11;100.00;100552.55;1622249;88;21086;-75
2022/12/04 11:21:23;;;;;;;36.75;22.13;;;;;;;0.06;100.00;100556.79;1623365;88;21045;-75
2022/12/04 11:23:51;;;;;;;39.55;22.45;;;;;;;0.07;100.00;100561.06;1697795;83;21529;-75
2022/12/04 11:26:34;;;;;;;38.78;21.80;;;;;;;0.09;100.00;100561.95;1694414;84;21473;-75
2022/12/04 11:29:04;;;;;;;48.20;28.12;;;;;;;0.08;100.00;100549.94;1687998;83;20950;-76
2022/12/04 11:31:32;;;;;;;41.42;24.70;;;;;;;0.09;100.00;100555.95;1698208;84;21514;-75
2022/12/04 11:34:06;;;;;;;38.40;22.22;;;;;;;0.12;100.00;100545.70;1700222;83;21572;-74
2022/12/04 11:36:39;;;;;;;43.20;24.12;;;;;;;0.13;100.00;100554.69;1698816;84;20935;-75
2022/12/04 11:39:19;;;;;;;43.70;24.23;;;;;;;0.16;100.00;100556.00;1682765;84;21093;-75
2022/12/04 11:41:46;;;;;;;54.95;29.15;;;;;;;0.15;100.00;100544.02;1684957;83;21012;-75